Time,TemperatureF,DewpointF,PressureIn,WindDirection,WindDirectionDegrees,WindSpeedMPH,WindSpeedGustMPH,Humidity,HourlyPrecipIn,Conditions,Clouds,dailyrainin,SoftwareType,DateUTC
2013-07-06 00:00:00,74.8,72.6,30.20,WNW,293,1.0,-999.0,93,0.00,,,0.02,Wunderground v.1.15,2013-07-06 04:00:00,
2013-07-06 00:05:00,74.8,72.6,30.20,WNW,293,1.0,-999.0,93,0.00,,,0.02,Wunderground v.1.15,2013-07-06 04:05:00,
2013-07-06 00:10:00,74.8,72.6,30.20,WNW,293,1.0,-999.0,93,0.00,,,0.02,Wunderground v.1.15,2013-07-06 04:10:00,
2013-07-06 00:15:00,74.8,72.6,30.20,WNW,293,1.0,-999.0,93,0.00,,,0.02,Wunderground v.1.15,2013-07-06 04:15:00,
2013-07-06 00:20:00,74.8,72.6,30.20,WNW,293,1.0,-999.0,93,0.00,,,0.02,Wunderground v.1.15,2013-07-06 04:20:00,
2013-07-06 00:25:00,74.8,72.6,30.20,WNW,293,1.0,-999.0,93,0.00,,,0.02,Wunderground v.1.15,2013-07-06 04:25:00,
2013-07-06 00:30:00,74.8,72.6,30.20,WNW,293,1.0,-999.0,93,0.00,,,0.02,Wunderground v.1.15,2013-07-06 04:30:00,
2013-07-06 00:35:00,74.8,72.6,30.20,WNW,293,1.0,-999.0,93,0.00,,,0.02,Wunderground v.1.15,2013-07-06 04:35:00,
2013-07-06 00:40:00,74.8,72.6,30.20,WNW,293,1.0,-999.0,93,0.00,,,0.02,Wunderground v.1.15,2013-07-06 04:40:00,
2013-07-06 00:45:00,74.0,71.8,30.19,North,0,0.0,-999.0,93,0.00,,,0.02,Wunderground v.1.15,2013-07-06 04:45:00,
2013-07-06 00:50:00,74.0,71.8,30.19,North,0,0.0,-999.0,93,0.00,,,0.02,Wunderground v.1.15,2013-07-06 04:50:00,
2013-07-06 00:55:00,74.0,71.8,30.19,North,0,0.0,-999.0,93,0.00,,,0.02,Wunderground v.1.15,2013-07-06 04:55:00,
2013-07-06 01:00:00,74.0,71.8,30.19,North,0,0.0,-999.0,93,0.00,,,0.02,Wunderground v.1.15,2013-07-06 05:00:00,
2013-07-06 01:05:00,74.0,71.8,30.19,North,0,0.0,-999.0,93,0.00,,,0.02,Wunderground v.1.15,2013-07-06 05:05:00,
2013-07-06 01:10:00,74.0,71.8,30.19,North,0,0.0,-999.0,93,0.00,,,0.02,Wunderground v.1.15,2013-07-06 05:10:00,
2013-07-06 01:15:00,73.8,72.0,30.19,NE,45,0.0,-999.0,94,0.00,,,0.02,Wunderground v.1.15,2013-07-06 05:15:00,
2013-07-06 01:20:00,73.8,72.0,30.19,NE,45,0.0,-999.0,94,0.00,,,0.02,Wunderground v.1.15,2013-07-06 05:20:00,
2013-07-06 01:25:00,73.8,72.0,30.19,NE,45,0.0,-999.0,94,0.00,,,0.02,Wunderground v.1.15,2013-07-06 05:25:00,
2013-07-06 01:30:00,73.8,72.0,30.19,NE,45,0.0,-999.0,94,0.00,,,0.02,Wunderground v.1.15,2013-07-06 05:30:00,
2013-07-06 01:35:00,73.8,72.0,30.19,NE,45,0.0,-999.0,94,0.00,,,0.02,Wunderground v.1.15,2013-07-06 05:35:00,
2013-07-06 01:40:00,73.8,72.0,30.19,NE,45,0.0,-999.0,94,0.00,,,0.02,Wunderground v.1.15,2013-07-06 05:40:00,
2013-07-06 01:45:00,73.6,71.8,30.18,WNW,293,0.0,-999.0,94,0.00,,,0.02,Wunderground v.1.15,2013-07-06 05:45:00,
2013-07-06 01:50:00,73.6,71.8,30.18,WNW,293,0.0,-999.0,94,0.00,,,0.02,Wunderground v.1.15,2013-07-06 05:50:00,
2013-07-06 01:55:00,73.6,71.8,30.18,WNW,293,0.0,-999.0,94,0.00,,,0.02,Wunderground v.1.15,2013-07-06 05:55:00,
2013-07-06 02:00:00,73.6,71.8,30.18,WNW,293,0.0,-999.0,94,0.00,,,0.02,Wunderground v.1.15,2013-07-06 06:00:00,
2013-07-06 02:05:00,73.6,71.8,30.18,WNW,293,0.0,-999.0,94,0.00,,,0.02,Wunderground v.1.15,2013-07-06 06:05:00,
2013-07-06 02:10:00,73.6,71.8,30.18,WNW,293,0.0,-999.0,94,0.00,,,0.02,Wunderground v.1.15,2013-07-06 06:10:00,
2013-07-06 02:15:00,74.0,71.8,30.18,WNW,293,1.0,-999.0,93,0.00,,,0.02,Wunderground v.1.15,2013-07-06 06:15:00,
2013-07-06 02:20:00,74.0,71.8,30.18,WNW,293,1.0,-999.0,93,0.00,,,0.02,Wunderground v.1.15,2013-07-06 06:20:00,
2013-07-06 02:25:00,74.0,71.8,30.18,WNW,293,1.0,-999.0,93,0.00,,,0.02,Wunderground v.1.15,2013-07-06 06:25:00,
2013-07-06 02:30:00,74.0,71.8,30.18,WNW,293,1.0,-999.0,93,0.00,,,0.02,Wunderground v.1.15,2013-07-06 06:30:00,
2013-07-06 02:35:00,74.0,71.8,30.18,WNW,293,1.0,-999.0,93,0.00,,,0.02,Wunderground v.1.15,2013-07-06 06:35:00,
2013-07-06 02:40:00,74.0,71.8,30.18,WNW,293,1.0,-999.0,93,0.00,,,0.02,Wunderground v.1.15,2013-07-06 06:40:00,
2013-07-06 02:45:00,73.8,72.0,30.18,West,270,1.0,-999.0,94,0.00,,,0.02,Wunderground v.1.15,2013-07-06 06:45:00,
2013-07-06 02:50:00,73.8,72.0,30.18,West,270,1.0,-999.0,94,0.00,,,0.02,Wunderground v.1.15,2013-07-06 06:50:00,
2013-07-06 02:55:00,73.8,72.0,30.18,West,270,1.0,-999.0,94,0.00,,,0.02,Wunderground v.1.15,2013-07-06 06:55:00,
2013-07-06 03:00:00,73.8,72.0,30.18,West,270,1.0,-999.0,94,0.00,,,0.02,Wunderground v.1.15,2013-07-06 07:00:00,
2013-07-06 03:05:00,73.8,72.0,30.18,West,270,1.0,-999.0,94,0.00,,,0.02,Wunderground v.1.15,2013-07-06 07:05:00,
2013-07-06 03:10:00,73.8,72.0,30.18,West,270,1.0,-999.0,94,0.00,,,0.02,Wunderground v.1.15,2013-07-06 07:10:00,
2013-07-06 03:15:00,74.1,72.3,30.17,West,270,1.0,-999.0,94,0.00,,,0.02,Wunderground v.1.15,2013-07-06 07:15:00,
2013-07-06 03:20:00,74.1,72.3,30.17,West,270,1.0,-999.0,94,0.00,,,0.02,Wunderground v.1.15,2013-07-06 07:20:00,
2013-07-06 03:25:00,74.1,72.3,30.17,West,270,1.0,-999.0,94,0.00,,,0.02,Wunderground v.1.15,2013-07-06 07:25:00,
2013-07-06 03:30:00,74.1,72.3,30.17,West,270,1.0,-999.0,94,0.00,,,0.02,Wunderground v.1.15,2013-07-06 07:30:00,
2013-07-06 03:35:00,74.1,72.3,30.17,West,270,1.0,-999.0,94,0.00,,,0.02,Wunderground v.1.15,2013-07-06 07:35:00,
2013-07-06 03:40:00,74.1,72.3,30.17,West,270,1.0,-999.0,94,0.00,,,0.02,Wunderground v.1.15,2013-07-06 07:40:00,
2013-07-06 03:45:00,74.3,72.5,30.17,WNW,293,1.0,-999.0,94,0.00,,,0.02,Wunderground v.1.15,2013-07-06 07:45:00,
2013-07-06 03:50:00,74.3,72.5,30.17,WNW,293,1.0,-999.0,94,0.00,,,0.02,Wunderground v.1.15,2013-07-06 07:50:00,
2013-07-06 03:55:00,74.3,72.5,30.17,WNW,293,1.0,-999.0,94,0.00,,,0.02,Wunderground v.1.15,2013-07-06 07:55:00,
2013-07-06 04:00:00,74.3,72.5,30.17,WNW,293,1.0,-999.0,94,0.00,,,0.02,Wunderground v.1.15,2013-07-06 08:00:00,
2013-07-06 04:05:00,74.3,72.5,30.17,WNW,293,1.0,-999.0,94,0.00,,,0.02,Wunderground v.1.15,2013-07-06 08:05:00,
2013-07-06 04:10:00,74.3,72.5,30.17,WNW,293,1.0,-999.0,94,0.00,,,0.02,Wunderground v.1.15,2013-07-06 08:10:00,
2013-07-06 04:15:00,74.1,72.3,30.17,West,270,1.0,-999.0,94,0.00,,,0.02,Wunderground v.1.15,2013-07-06 08:15:00,
2013-07-06 04:20:00,74.1,72.3,30.17,West,270,1.0,-999.0,94,0.00,,,0.02,Wunderground v.1.15,2013-07-06 08:20:00,
2013-07-06 04:25:00,74.1,72.3,30.17,West,270,1.0,-999.0,94,0.00,,,0.02,Wunderground v.1.15,2013-07-06 08:25:00,
2013-07-06 04:30:00,74.1,72.3,30.17,West,270,1.0,-999.0,94,0.00,,,0.02,Wunderground v.1.15,2013-07-06 08:30:00,
2013-07-06 04:35:00,74.1,72.3,30.17,West,270,1.0,-999.0,94,0.00,,,0.02,Wunderground v.1.15,2013-07-06 08:35:00,
2013-07-06 04:40:00,74.1,72.3,30.17,West,270,1.0,-999.0,94,0.00,,,0.02,Wunderground v.1.15,2013-07-06 08:40:00,
2013-07-06 04:45:00,74.0,72.2,30.17,West,270,2.0,-999.0,94,0.00,,,0.02,Wunderground v.1.15,2013-07-06 08:45:00,
2013-07-06 04:50:00,74.0,72.2,30.17,West,270,2.0,-999.0,94,0.00,,,0.02,Wunderground v.1.15,2013-07-06 08:50:00,
2013-07-06 04:55:00,74.0,72.2,30.17,West,270,2.0,-999.0,94,0.00,,,0.02,Wunderground v.1.15,2013-07-06 08:55:00,
2013-07-06 05:00:00,74.0,72.2,30.17,West,270,2.0,-999.0,94,0.00,,,0.02,Wunderground v.1.15,2013-07-06 09:00:00,
2013-07-06 05:05:00,74.0,72.2,30.17,West,270,2.0,-999.0,94,0.00,,,0.02,Wunderground v.1.15,2013-07-06 09:05:00,
2013-07-06 05:10:00,74.0,72.2,30.17,West,270,2.0,-999.0,94,0.00,,,0.02,Wunderground v.1.15,2013-07-06 09:10:00,
2013-07-06 05:15:00,73.5,72.0,30.18,WNW,293,1.0,-999.0,95,0.02,,,0.02,Wunderground v.1.15,2013-07-06 09:15:00,
2013-07-06 05:20:00,73.5,72.0,30.18,WNW,293,1.0,-999.0,95,0.02,,,0.02,Wunderground v.1.15,2013-07-06 09:20:00,
2013-07-06 05:25:00,73.5,72.0,30.18,WNW,293,1.0,-999.0,95,0.02,,,0.02,Wunderground v.1.15,2013-07-06 09:25:00,
2013-07-06 05:30:00,73.5,72.0,30.18,WNW,293,1.0,-999.0,95,0.02,,,0.02,Wunderground v.1.15,2013-07-06 09:30:00,
2013-07-06 05:35:00,73.5,72.0,30.18,WNW,293,1.0,-999.0,95,0.02,,,0.02,Wunderground v.1.15,2013-07-06 09:35:00,
2013-07-06 05:40:00,73.5,72.0,30.18,WNW,293,1.0,-999.0,95,0.02,,,0.02,Wunderground v.1.15,2013-07-06 09:40:00,
2013-07-06 05:45:00,73.5,72.0,30.19,WNW,293,1.0,-999.0,95,0.02,,,0.02,Wunderground v.1.15,2013-07-06 09:45:00,
2013-07-06 05:50:00,73.5,72.0,30.19,WNW,293,1.0,-999.0,95,0.02,,,0.02,Wunderground v.1.15,2013-07-06 09:50:00,
2013-07-06 05:55:00,73.5,72.0,30.19,WNW,293,1.0,-999.0,95,0.02,,,0.02,Wunderground v.1.15,2013-07-06 09:55:00,
2013-07-06 06:00:00,73.5,72.0,30.19,WNW,293,1.0,-999.0,95,0.02,,,0.02,Wunderground v.1.15,2013-07-06 10:00:00,
2013-07-06 06:05:00,73.5,72.0,30.19,WNW,293,1.0,-999.0,95,0.02,,,0.02,Wunderground v.1.15,2013-07-06 10:05:00,
2013-07-06 06:10:00,73.5,72.0,30.19,WNW,293,1.0,-999.0,95,0.02,,,0.02,Wunderground v.1.15,2013-07-06 10:10:00,
2013-07-06 06:15:00,72.7,71.2,30.19,WNW,293,0.0,-999.0,95,0.00,,,0.02,Wunderground v.1.15,2013-07-06 10:15:00,
2013-07-06 06:20:00,72.7,71.2,30.19,WNW,293,0.0,-999.0,95,0.00,,,0.02,Wunderground v.1.15,2013-07-06 10:20:00,
2013-07-06 06:25:00,72.7,71.2,30.19,WNW,293,0.0,-999.0,95,0.00,,,0.02,Wunderground v.1.15,2013-07-06 10:25:00,
2013-07-06 06:30:00,72.7,71.2,30.19,WNW,293,0.0,-999.0,95,0.00,,,0.02,Wunderground v.1.15,2013-07-06 10:30:00,
2013-07-06 06:35:00,72.7,71.2,30.19,WNW,293,0.0,-999.0,95,0.00,,,0.02,Wunderground v.1.15,2013-07-06 10:35:00,
2013-07-06 06:40:00,72.7,71.2,30.19,WNW,293,0.0,-999.0,95,0.00,,,0.02,Wunderground v.1.15,2013-07-06 10:40:00,
2013-07-06 06:45:00,72.5,71.0,30.20,NNE,23,0.0,-999.0,95,0.00,,,0.02,Wunderground v.1.15,2013-07-06 10:45:00,
2013-07-06 06:50:00,72.5,71.0,30.20,NNE,23,0.0,-999.0,95,0.00,,,0.02,Wunderground v.1.15,2013-07-06 10:50:00,
2013-07-06 06:55:00,72.5,71.0,30.20,NNE,23,0.0,-999.0,95,0.00,,,0.02,Wunderground v.1.15,2013-07-06 10:55:00,
2013-07-06 07:00:00,72.5,71.0,30.20,NNE,23,0.0,-999.0,95,0.00,,,0.02,Wunderground v.1.15,2013-07-06 11:00:00,
2013-07-06 07:35:00,73.3,71.8,30.20,NW,306,1.0,2.0,95,0.00,,,0.02,Wunderground v.1.15,2013-07-06 11:35:00,
2013-07-06 07:40:00,73.5,72.0,30.21,WSW,252,1.0,2.0,95,0.00,,,0.02,Wunderground v.1.15,2013-07-06 11:40:00,
2013-07-06 07:45:00,73.6,72.1,30.21,WSW,255,1.0,2.0,95,0.00,,,0.02,Wunderground v.1.15,2013-07-06 11:45:00,
2013-07-06 07:50:00,73.7,72.2,30.20,WSW,256,1.0,2.0,95,0.00,,,0.02,Wunderground v.1.15,2013-07-06 11:50:00,
2013-07-06 07:55:00,73.7,72.2,30.21,WSW,256,0.0,0.0,95,0.00,,,0.02,Wunderground v.1.15,2013-07-06 11:55:00,
2013-07-06 08:00:00,73.7,72.2,30.21,WSW,245,0.0,0.0,95,0.00,,,0.02,Wunderground v.1.15,2013-07-06 12:00:00,
2013-07-06 08:05:00,73.7,71.9,30.21,WSW,245,0.0,3.0,94,0.00,,,0.02,Wunderground v.1.15,2013-07-06 12:05:00,
2013-07-06 08:10:00,73.8,72.0,30.21,SSW,203,0.0,3.0,94,0.00,,,0.02,Wunderground v.1.15,2013-07-06 12:10:00,
2013-07-06 08:15:00,73.9,72.1,30.21,SW,226,0.0,3.0,94,0.00,,,0.02,Wunderground v.1.15,2013-07-06 12:15:00,
2013-07-06 08:20:00,74.0,72.2,30.21,SW,228,0.0,3.0,94,0.00,,,0.02,Wunderground v.1.15,2013-07-06 12:20:00,
2013-07-06 08:25:00,74.1,72.3,30.21,NW,310,0.0,3.0,94,0.00,,,0.02,Wunderground v.1.15,2013-07-06 12:25:00,
2013-07-06 08:30:00,74.2,72.4,30.22,NNW,347,0.0,3.0,94,0.00,,,0.02,Wunderground v.1.15,2013-07-06 12:30:00,
2013-07-06 08:35:00,74.5,72.7,30.21,South,171,0.0,3.0,94,0.00,,,0.02,Wunderground v.1.15,2013-07-06 12:35:00,
2013-07-06 08:40:00,74.8,72.6,30.22,West,278,1.0,3.0,93,0.00,,,0.02,Wunderground v.1.15,2013-07-06 12:40:00,
2013-07-06 08:45:00,75.1,73.3,30.22,West,278,1.0,3.0,94,0.00,,,0.02,Wunderground v.1.15,2013-07-06 12:45:00,
2013-07-06 08:50:00,75.3,73.1,30.22,West,279,1.0,1.0,93,0.00,,,0.02,Wunderground v.1.15,2013-07-06 12:50:00,
2013-07-06 08:55:00,75.4,72.9,30.22,West,281,1.0,3.0,92,0.00,,,0.02,Wunderground v.1.15,2013-07-06 12:55:00,
2013-07-06 09:00:00,75.5,73.0,30.22,West,280,1.0,3.0,92,0.00,,,0.02,Wunderground v.1.15,2013-07-06 13:00:00,
2013-07-06 09:05:00,75.5,73.0,30.22,NW,318,1.0,3.0,92,0.00,,,0.02,Wunderground v.1.15,2013-07-06 13:05:00,
2013-07-06 09:15:00,76.2,73.4,30.22,West,268,1.0,1.0,91,0.00,,,0.02,Wunderground v.1.15,2013-07-06 13:15:00,
2013-07-06 09:20:00,76.3,73.5,30.21,East,94,1.0,1.0,91,0.00,,,0.02,Wunderground v.1.15,2013-07-06 13:20:00,
2013-07-06 09:25:00,76.4,73.6,30.22,WNW,300,1.0,2.0,91,0.00,,,0.02,Wunderground v.1.15,2013-07-06 13:25:00,
2013-07-06 09:30:00,76.2,73.1,30.21,NW,306,0.0,0.0,90,0.00,,,0.02,Wunderground v.1.15,2013-07-06 13:30:00,
2013-07-06 09:35:00,76.0,73.2,30.22,West,268,1.0,3.0,91,0.00,,,0.02,Wunderground v.1.15,2013-07-06 13:35:00,
2013-07-06 09:45:00,76.0,73.2,30.21,West,268,1.0,1.0,91,0.00,,,0.02,Wunderground v.1.15,2013-07-06 13:45:00,
2013-07-06 09:50:00,76.4,73.2,30.21,WSW,252,2.0,2.0,90,0.00,,,0.02,Wunderground v.1.15,2013-07-06 13:50:00,
2013-07-06 09:55:00,76.3,72.8,30.21,WSW,248,3.0,3.0,89,0.00,,,0.02,Wunderground v.1.15,2013-07-06 13:55:00,
2013-07-06 10:00:00,76.6,73.4,30.21,WSW,253,2.0,2.0,90,0.00,,,0.02,Wunderground v.1.15,2013-07-06 14:00:00,
2013-07-06 10:05:00,77.1,73.9,30.21,West,273,2.0,3.0,90,0.00,,,0.02,Wunderground v.1.15,2013-07-06 14:05:00,
2013-07-06 10:10:00,77.5,74.0,30.21,West,266,2.0,2.0,89,0.00,,,0.02,Wunderground v.1.15,2013-07-06 14:10:00,
2013-07-06 10:15:00,77.8,73.6,30.21,West,275,2.0,5.0,87,0.00,,,0.02,Wunderground v.1.15,2013-07-06 14:15:00,
2013-07-06 10:20:00,77.7,73.9,30.21,SW,219,2.0,2.0,88,0.00,,,0.02,Wunderground v.1.15,2013-07-06 14:20:00,
2013-07-06 10:25:00,77.8,73.6,30.21,West,281,1.0,4.0,87,0.00,,,0.02,Wunderground v.1.15,2013-07-06 14:25:00,
2013-07-06 10:30:00,77.9,74.1,30.21,West,271,1.0,5.0,88,0.00,,,0.02,Wunderground v.1.15,2013-07-06 14:30:00,
2013-07-06 10:35:00,77.9,73.4,30.20,West,271,1.0,5.0,86,0.00,,,0.02,Wunderground v.1.15,2013-07-06 14:35:00,
2013-07-06 10:40:00,77.8,73.3,30.21,West,271,1.0,1.0,86,0.00,,,0.02,Wunderground v.1.15,2013-07-06 14:40:00,
2013-07-06 10:45:00,77.8,73.3,30.20,West,269,0.0,3.0,86,0.00,,,0.02,Wunderground v.1.15,2013-07-06 14:45:00,
2013-07-06 10:50:00,77.9,73.7,30.21,West,268,1.0,1.0,87,0.00,,,0.02,Wunderground v.1.15,2013-07-06 14:50:00,
2013-07-06 10:55:00,78.4,74.2,30.21,West,268,1.0,5.0,87,0.00,,,0.02,Wunderground v.1.15,2013-07-06 14:55:00,
2013-07-06 11:00:00,78.8,74.3,30.21,SW,227,0.0,5.0,86,0.00,,,0.02,Wunderground v.1.15,2013-07-06 15:00:00,
2013-07-06 11:05:00,79.1,74.2,30.21,West,270,1.0,5.0,85,0.00,,,0.02,Wunderground v.1.15,2013-07-06 15:05:00,
2013-07-06 11:10:00,79.0,73.7,30.21,West,267,2.0,5.0,84,0.00,,,0.02,Wunderground v.1.15,2013-07-06 15:10:00,
2013-07-06 11:15:00,79.2,74.3,30.21,WNW,302,3.0,5.0,85,0.00,,,0.02,Wunderground v.1.15,2013-07-06 15:15:00,
2013-07-06 11:20:00,79.4,74.1,30.21,WSW,241,2.0,2.0,84,0.00,,,0.02,Wunderground v.1.15,2013-07-06 15:20:00,
2013-07-06 11:25:00,80.0,74.4,30.21,West,268,1.0,3.0,83,0.00,,,0.02,Wunderground v.1.15,2013-07-06 15:25:00,
2013-07-06 11:30:00,80.2,74.2,30.21,SE,129,1.0,5.0,82,0.00,,,0.02,Wunderground v.1.15,2013-07-06 15:30:00,
2013-07-06 11:35:00,80.8,74.8,30.21,WSW,245,1.0,5.0,82,0.00,,,0.02,Wunderground v.1.15,2013-07-06 15:35:00,
2013-07-06 11:40:00,81.1,75.4,30.21,West,269,1.0,1.0,83,0.00,,,0.02,Wunderground v.1.15,2013-07-06 15:40:00,
2013-07-06 11:45:00,80.9,74.5,30.21,WNW,282,1.0,2.0,81,0.00,,,0.02,Wunderground v.1.15,2013-07-06 15:45:00,
2013-07-06 11:50:00,80.9,73.8,30.20,WSW,257,1.0,1.0,79,0.00,,,0.02,Wunderground v.1.15,2013-07-06 15:50:00,
2013-07-06 11:55:00,81.4,75.0,30.20,WNW,285,1.0,5.0,81,0.00,,,0.02,Wunderground v.1.15,2013-07-06 15:55:00,
2013-07-06 12:00:00,81.4,73.5,30.20,WNW,288,1.0,5.0,77,0.00,,,0.02,Wunderground v.1.15,2013-07-06 16:00:00,
2013-07-06 12:05:00,81.4,74.3,30.20,WNW,286,2.0,5.0,79,0.00,,,0.02,Wunderground v.1.15,2013-07-06 16:05:00,
2013-07-06 12:10:00,81.6,74.1,30.20,WNW,300,2.0,5.0,78,0.00,,,0.02,Wunderground v.1.15,2013-07-06 16:10:00,
2013-07-06 12:15:00,81.4,74.3,30.20,West,275,3.0,5.0,79,0.00,,,0.02,Wunderground v.1.15,2013-07-06 16:15:00,
2013-07-06 12:20:00,81.5,74.4,30.20,West,271,2.0,5.0,79,0.00,,,0.02,Wunderground v.1.15,2013-07-06 16:20:00,
2013-07-06 12:25:00,81.8,74.6,30.19,West,275,2.0,5.0,79,0.00,,,0.02,Wunderground v.1.15,2013-07-06 16:25:00,
2013-07-06 12:30:00,82.0,74.1,30.19,WNW,282,2.0,5.0,77,0.00,,,0.02,Wunderground v.1.15,2013-07-06 16:30:00,
2013-07-06 12:35:00,81.8,73.5,30.19,West,267,2.0,5.0,76,0.00,,,0.02,Wunderground v.1.15,2013-07-06 16:35:00,
2013-07-06 12:40:00,82.1,74.2,30.19,NW,319,2.0,2.0,77,0.00,,,0.02,Wunderground v.1.15,2013-07-06 16:40:00,
2013-07-06 12:45:00,82.3,74.4,30.19,West,271,1.0,3.0,77,0.00,,,0.02,Wunderground v.1.15,2013-07-06 16:45:00,
2013-07-06 12:55:00,82.3,73.2,30.19,WNW,285,2.0,4.0,74,0.00,,,0.02,Wunderground v.1.15,2013-07-06 16:55:00,
2013-07-06 13:05:00,82.4,73.3,30.19,West,264,2.0,5.0,74,0.00,,,0.02,Wunderground v.1.15,2013-07-06 17:05:00,
2013-07-06 13:15:00,82.3,74.4,30.18,NW,321,3.0,5.0,77,0.00,,,0.02,Wunderground v.1.15,2013-07-06 17:15:00,
2013-07-06 13:20:00,82.5,73.0,30.18,WNW,284,2.0,2.0,73,0.00,,,0.02,Wunderground v.1.15,2013-07-06 17:20:00,
2013-07-06 13:35:00,82.6,73.9,30.18,SSE,160,2.0,5.0,75,0.00,,,0.02,Wunderground v.1.15,2013-07-06 17:35:00,
2013-07-06 13:50:00,82.0,73.3,30.17,West,281,2.0,2.0,75,0.00,,,0.02,Wunderground v.1.15,2013-07-06 17:50:00,
2013-07-06 13:55:00,81.5,72.8,30.17,NW,305,2.0,5.0,75,0.00,,,0.02,Wunderground v.1.15,2013-07-06 17:55:00,
2013-07-06 14:10:00,80.9,72.2,30.17,North,9,1.0,5.0,75,0.00,,,0.02,Wunderground v.1.15,2013-07-06 18:10:00,
2013-07-06 14:15:00,78.9,72.2,30.18,WNW,298,2.0,5.0,80,0.00,,,0.03,Wunderground v.1.15,2013-07-06 18:15:00,
2013-07-06 14:30:00,75.9,71.4,30.17,NW,306,3.0,3.0,86,0.08,,,0.06,Wunderground v.1.15,2013-07-06 18:30:00,
2013-07-06 14:35:00,75.8,72.0,30.17,SE,140,2.0,5.0,88,0.05,,,0.06,Wunderground v.1.15,2013-07-06 18:35:00,
2013-07-06 14:40:00,75.8,72.0,30.17,WNW,284,1.0,5.0,88,0.00,,,0.06,Wunderground v.1.15,2013-07-06 18:40:00,
2013-07-06 14:45:00,75.9,72.1,30.16,WNW,284,1.0,5.0,88,0.00,,,0.06,Wunderground v.1.15,2013-07-06 18:45:00,
2013-07-06 14:50:00,76.7,73.5,30.16,WNW,284,0.0,5.0,90,0.00,,,0.06,Wunderground v.1.15,2013-07-06 18:50:00,
2013-07-06 15:00:00,77.4,72.9,30.16,WNW,286,1.0,1.0,86,0.00,,,0.06,Wunderground v.1.15,2013-07-06 19:00:00,
2013-07-06 15:05:00,78.0,74.2,30.16,WNW,286,1.0,5.0,88,0.00,,,0.06,Wunderground v.1.15,2013-07-06 19:05:00,
2013-07-06 15:15:00,79.6,75.4,30.15,SW,233,0.0,5.0,87,0.00,,,0.06,Wunderground v.1.15,2013-07-06 19:15:00,
2013-07-06 15:20:00,80.2,75.3,30.15,SE,130,0.0,5.0,85,0.00,,,0.06,Wunderground v.1.15,2013-07-06 19:20:00,
2013-07-06 15:25:00,80.6,74.6,30.14,NNE,13,1.0,5.0,82,0.00,,,0.06,Wunderground v.1.15,2013-07-06 19:25:00,
2013-07-06 15:30:00,81.3,75.3,30.14,North,5,1.0,1.0,82,0.00,,,0.06,Wunderground v.1.15,2013-07-06 19:30:00,
2013-07-06 15:35:00,81.8,74.6,30.14,NNE,24,1.0,5.0,79,0.00,,,0.06,Wunderground v.1.15,2013-07-06 19:35:00,
2013-07-06 15:40:00,82.6,76.2,30.14,NE,38,0.0,5.0,81,0.00,,,0.06,Wunderground v.1.15,2013-07-06 19:40:00,
2013-07-06 15:45:00,83.1,75.1,30.14,East,99,0.0,5.0,77,0.00,,,0.06,Wunderground v.1.15,2013-07-06 19:45:00,
2013-07-06 15:50:00,83.5,74.7,30.13,SSE,148,0.0,5.0,75,0.00,,,0.06,Wunderground v.1.15,2013-07-06 19:50:00,
2013-07-06 15:55:00,83.7,75.7,30.13,WSW,255,1.0,5.0,77,0.00,,,0.06,Wunderground v.1.15,2013-07-06 19:55:00,
2013-07-06 16:00:00,83.9,74.7,30.13,NNE,22,1.0,5.0,74,0.00,,,0.06,Wunderground v.1.15,2013-07-06 20:00:00,
2013-07-06 16:05:00,84.2,75.4,30.13,WNW,303,1.0,5.0,75,0.00,,,0.06,Wunderground v.1.15,2013-07-06 20:05:00,
2013-07-06 16:10:00,84.5,75.7,30.12,WNW,282,1.0,1.0,75,0.00,,,0.06,Wunderground v.1.15,2013-07-06 20:10:00,
2013-07-06 16:15:00,84.6,75.4,30.12,WSW,257,1.0,5.0,74,0.00,,,0.06,Wunderground v.1.15,2013-07-06 20:15:00,
2013-07-06 16:25:00,85.0,74.1,30.12,WNW,285,1.0,5.0,70,0.00,,,0.06,Wunderground v.1.15,2013-07-06 20:25:00,
2013-07-06 16:30:00,85.2,74.7,30.12,WNW,283,2.0,2.0,71,0.00,,,0.06,Wunderground v.1.15,2013-07-06 20:30:00,
2013-07-06 16:35:00,84.5,73.2,30.12,WSW,243,1.0,5.0,69,0.00,,,0.06,Wunderground v.1.15,2013-07-06 20:35:00,
2013-07-06 16:40:00,84.2,74.2,30.12,WSW,255,1.0,1.0,72,0.00,,,0.06,Wunderground v.1.15,2013-07-06 20:40:00,
2013-07-06 16:45:00,83.9,74.7,30.12,West,263,0.0,5.0,74,0.00,,,0.06,Wunderground v.1.15,2013-07-06 20:45:00,
2013-07-06 16:55:00,83.4,74.6,30.11,West,266,0.0,5.0,75,0.00,,,0.06,Wunderground v.1.15,2013-07-06 20:55:00,
2013-07-06 17:00:00,83.1,74.7,30.12,West,265,0.0,5.0,76,0.00,,,0.06,Wunderground v.1.15,2013-07-06 21:00:00,
2013-07-06 17:05:00,81.7,74.9,30.12,WNW,288,2.0,5.0,80,0.00,,,0.06,Wunderground v.1.15,2013-07-06 21:05:00,
2013-07-06 17:10:00,81.7,75.7,30.11,NW,313,3.0,5.0,82,0.00,,,0.06,Wunderground v.1.15,2013-07-06 21:10:00,
2013-07-06 17:20:00,82.5,76.1,30.10,NNW,346,1.0,1.0,81,0.00,,,0.06,Wunderground v.1.15,2013-07-06 21:20:00,
2013-07-06 17:25:00,83.3,76.5,30.10,WNW,284,0.0,1.0,80,0.00,,,0.06,Wunderground v.1.15,2013-07-06 21:25:00,
2013-07-06 17:30:00,83.9,76.7,30.10,West,281,0.0,0.0,79,0.00,,,0.06,Wunderground v.1.15,2013-07-06 21:30:00,
2013-07-06 17:35:00,84.3,76.3,30.10,West,279,0.0,0.0,77,0.00,,,0.06,Wunderground v.1.15,2013-07-06 21:35:00,
2013-07-06 17:40:00,84.7,76.3,30.10,West,279,0.0,0.0,76,0.00,,,0.06,Wunderground v.1.15,2013-07-06 21:40:00,
2013-07-06 17:45:00,84.7,76.3,30.09,WNW,284,1.0,1.0,76,0.00,,,0.06,Wunderground v.1.15,2013-07-06 21:45:00,
2013-07-06 17:50:00,84.7,75.5,30.09,South,177,1.0,1.0,74,0.00,,,0.06,Wunderground v.1.15,2013-07-06 21:50:00,
2013-07-06 17:55:00,84.7,75.5,30.09,West,271,1.0,1.0,74,0.00,,,0.06,Wunderground v.1.15,2013-07-06 21:55:00,
2013-07-06 18:00:00,84.9,75.3,30.09,ESE,111,1.0,1.0,73,0.00,,,0.06,Wunderground v.1.15,2013-07-06 22:00:00,
2013-07-06 18:10:00,84.7,75.1,30.09,NNE,26,1.0,3.0,73,0.00,,,0.06,Wunderground v.1.15,2013-07-06 22:10:00,
2013-07-06 18:15:00,83.4,74.6,30.09,South,178,2.0,3.0,75,0.00,,,0.06,Wunderground v.1.15,2013-07-06 22:15:00,
2013-07-06 18:25:00,79.0,72.7,30.10,NNW,332,2.0,3.0,81,0.17,,,0.09,Wunderground v.1.15,2013-07-06 22:25:00,
2013-07-06 18:30:00,77.9,72.3,30.10,WNW,293,1.0,1.0,83,0.08,,,0.10,Wunderground v.1.15,2013-07-06 22:30:00,
2013-07-06 18:35:00,77.2,72.3,30.10,NNE,29,1.0,3.0,85,0.08,,,0.10,Wunderground v.1.15,2013-07-06 22:35:00,
2013-07-06 18:40:00,77.0,72.5,30.10,ENE,71,0.0,3.0,86,0.06,,,0.10,Wunderground v.1.15,2013-07-06 22:40:00,
2013-07-06 18:45:00,77.0,72.8,30.10,ENE,67,0.0,3.0,87,0.04,,,0.10,Wunderground v.1.15,2013-07-06 22:45:00,
2013-07-06 18:50:00,77.1,73.3,30.11,ENE,67,0.0,3.0,88,0.00,,,0.10,Wunderground v.1.15,2013-07-06 22:50:00,
2013-07-06 19:10:00,77.0,73.5,30.11,NNE,19,0.0,3.0,89,0.00,,,0.10,Wunderground v.1.15,2013-07-06 23:10:00,
2013-07-06 19:15:00,76.8,73.3,30.11,NNW,340,0.0,3.0,89,0.00,,,0.10,Wunderground v.1.15,2013-07-06 23:15:00,
2013-07-06 19:25:00,77.0,73.5,30.12,WNW,288,0.0,3.0,89,0.00,,,0.10,Wunderground v.1.15,2013-07-06 23:25:00,
2013-07-06 19:30:00,77.1,73.6,30.12,WNW,302,0.0,3.0,89,0.00,,,0.10,Wunderground v.1.15,2013-07-06 23:30:00,
2013-07-06 19:35:00,77.3,73.8,30.12,West,275,0.0,3.0,89,0.00,,,0.10,Wunderground v.1.15,2013-07-06 23:35:00,
2013-07-06 19:40:00,77.4,73.9,30.12,West,275,1.0,1.0,89,0.00,,,0.10,Wunderground v.1.15,2013-07-06 23:40:00,
2013-07-06 19:45:00,77.4,73.9,30.12,WNW,288,1.0,3.0,89,0.00,,,0.10,Wunderground v.1.15,2013-07-06 23:45:00,
2013-07-06 19:50:00,77.3,73.8,30.12,West,264,0.0,3.0,89,0.00,,,0.10,Wunderground v.1.15,2013-07-06 23:50:00,
2013-07-06 19:55:00,77.4,73.9,30.12,West,266,1.0,3.0,89,0.00,,,0.10,Wunderground v.1.15,2013-07-06 23:55:00,
2013-07-06 20:00:00,77.3,73.8,30.12,West,266,0.0,3.0,89,0.00,,,0.10,Wunderground v.1.15,2013-07-07 00:00:00,
2013-07-06 20:05:00,77.3,73.8,30.11,West,266,0.0,3.0,89,0.00,,,0.10,Wunderground v.1.15,2013-07-07 00:05:00,
2013-07-06 20:10:00,77.3,74.1,30.11,West,266,0.0,3.0,90,0.00,,,0.10,Wunderground v.1.15,2013-07-07 00:10:00,
2013-07-06 20:15:00,77.2,74.0,30.12,West,266,0.0,3.0,90,0.00,,,0.10,Wunderground v.1.15,2013-07-07 00:15:00,
2013-07-06 20:25:00,77.1,73.9,30.12,West,266,0.0,3.0,90,0.00,,,0.10,Wunderground v.1.15,2013-07-07 00:25:00,
2013-07-06 20:30:00,77.0,73.8,30.13,West,273,0.0,3.0,90,0.00,,,0.10,Wunderground v.1.15,2013-07-07 00:30:00,
2013-07-06 20:45:00,77.2,74.4,30.13,West,273,0.0,3.0,91,0.00,,,0.10,Wunderground v.1.15,2013-07-07 00:45:00,
2013-07-06 20:50:00,77.1,73.9,30.13,West,273,1.0,3.0,90,0.00,,,0.10,Wunderground v.1.15,2013-07-07 00:50:00,
2013-07-06 20:55:00,77.0,74.2,30.13,West,273,1.0,3.0,91,0.00,,,0.10,Wunderground v.1.15,2013-07-07 00:55:00,
2013-07-06 21:00:00,76.9,74.1,30.13,West,269,1.0,3.0,91,0.00,,,0.10,Wunderground v.1.15,2013-07-07 01:00:00,
2013-07-06 21:05:00,76.8,74.0,30.13,West,269,1.0,3.0,91,0.00,,,0.10,Wunderground v.1.15,2013-07-07 01:05:00,
2013-07-06 21:15:00,76.6,73.8,30.14,West,269,0.0,3.0,91,0.00,,,0.10,Wunderground v.1.15,2013-07-07 01:15:00,
2013-07-06 21:20:00,76.5,73.7,30.14,West,265,0.0,6.0,91,0.00,,,0.10,Wunderground v.1.15,2013-07-07 01:20:00,
2013-07-06 21:25:00,76.5,73.3,30.15,West,276,2.0,6.0,90,0.71,,,0.14,Wunderground v.1.15,2013-07-07 01:25:00,
2013-07-06 21:30:00,75.5,73.0,30.15,West,273,4.0,4.0,92,0.37,,,0.18,Wunderground v.1.15,2013-07-07 01:30:00,
2013-07-06 21:35:00,75.1,72.6,30.15,WNW,292,3.0,4.0,92,0.14,,,0.19,Wunderground v.1.15,2013-07-07 01:35:00,
2013-07-06 21:40:00,74.7,72.2,30.15,WNW,295,2.0,3.0,92,0.06,,,0.19,Wunderground v.1.15,2013-07-07 01:40:00,
2013-07-06 21:45:00,74.6,72.1,30.15,NNW,327,2.0,3.0,92,0.04,,,0.19,Wunderground v.1.15,2013-07-07 01:45:00,
2013-07-06 21:50:00,74.5,72.3,30.15,NW,315,1.0,1.0,93,0.00,,,0.19,Wunderground v.1.15,2013-07-07 01:50:00,
2013-07-06 21:55:00,74.4,72.2,30.16,North,360,1.0,3.0,93,0.00,,,0.19,Wunderground v.1.15,2013-07-07 01:55:00,
2013-07-06 22:00:00,74.2,71.7,30.16,WNW,293,1.0,-999.0,92,0.09,,,0.19,Wunderground v.1.15,2013-07-07 02:00:00,
2013-07-06 22:05:00,74.2,71.7,30.16,WNW,293,1.0,-999.0,92,0.09,,,0.19,Wunderground v.1.15,2013-07-07 02:05:00,
2013-07-06 22:10:00,74.2,71.7,30.16,WNW,293,1.0,-999.0,92,0.09,,,0.19,Wunderground v.1.15,2013-07-07 02:10:00,
2013-07-06 22:15:00,74.5,72.7,30.16,WNW,293,0.0,-999.0,94,0.01,,,0.19,Wunderground v.1.15,2013-07-07 02:15:00,
2013-07-06 22:20:00,74.5,72.7,30.16,WNW,293,0.0,-999.0,94,0.01,,,0.19,Wunderground v.1.15,2013-07-07 02:20:00,
2013-07-06 22:25:00,74.5,72.7,30.16,WNW,293,0.0,-999.0,94,0.01,,,0.19,Wunderground v.1.15,2013-07-07 02:25:00,
2013-07-06 22:30:00,74.5,72.7,30.16,WNW,293,0.0,-999.0,94,0.01,,,0.19,Wunderground v.1.15,2013-07-07 02:30:00,
2013-07-06 22:35:00,74.5,72.7,30.16,WNW,293,0.0,-999.0,94,0.01,,,0.19,Wunderground v.1.15,2013-07-07 02:35:00,
2013-07-06 22:40:00,74.5,72.7,30.16,WNW,293,0.0,-999.0,94,0.01,,,0.19,Wunderground v.1.15,2013-07-07 02:40:00,
2013-07-06 22:45:00,75.3,73.1,30.15,WNW,293,2.0,-999.0,93,0.00,,,0.19,Wunderground v.1.15,2013-07-07 02:45:00,
2013-07-06 22:50:00,75.3,73.1,30.15,WNW,293,2.0,-999.0,93,0.00,,,0.19,Wunderground v.1.15,2013-07-07 02:50:00,
2013-07-06 22:55:00,75.3,73.1,30.15,WNW,293,2.0,-999.0,93,0.00,,,0.19,Wunderground v.1.15,2013-07-07 02:55:00,
2013-07-06 23:00:00,75.3,73.1,30.15,WNW,293,2.0,-999.0,93,0.00,,,0.19,Wunderground v.1.15,2013-07-07 03:00:00,
2013-07-06 23:05:00,75.3,73.1,30.15,WNW,293,2.0,-999.0,93,0.00,,,0.19,Wunderground v.1.15,2013-07-07 03:05:00,
2013-07-06 23:10:00,75.3,73.1,30.15,WNW,293,2.0,-999.0,93,0.00,,,0.19,Wunderground v.1.15,2013-07-07 03:10:00,
2013-07-06 23:15:00,75.8,73.6,30.16,WNW,293,2.0,-999.0,93,0.00,,,0.19,Wunderground v.1.15,2013-07-07 03:15:00,
2013-07-06 23:20:00,75.8,73.6,30.16,WNW,293,2.0,-999.0,93,0.00,,,0.19,Wunderground v.1.15,2013-07-07 03:20:00,
2013-07-06 23:25:00,75.8,73.6,30.16,WNW,293,2.0,-999.0,93,0.00,,,0.19,Wunderground v.1.15,2013-07-07 03:25:00,
2013-07-06 23:30:00,75.8,73.6,30.16,WNW,293,2.0,-999.0,93,0.00,,,0.19,Wunderground v.1.15,2013-07-07 03:30:00,
2013-07-06 23:35:00,75.8,73.6,30.16,WNW,293,2.0,-999.0,93,0.00,,,0.19,Wunderground v.1.15,2013-07-07 03:35:00,
2013-07-06 23:40:00,75.8,73.6,30.16,WNW,293,2.0,-999.0,93,0.00,,,0.19,Wunderground v.1.15,2013-07-07 03:40:00,
2013-07-06 23:45:00,75.6,73.4,30.16,WNW,293,2.0,-999.0,93,0.00,,,0.19,Wunderground v.1.15,2013-07-07 03:45:00,
2013-07-06 23:50:00,75.6,73.4,30.16,WNW,293,2.0,-999.0,93,0.00,,,0.19,Wunderground v.1.15,2013-07-07 03:50:00,
2013-07-06 23:55:00,75.6,73.4,30.16,WNW,293,2.0,-999.0,93,0.00,,,0.19,Wunderground v.1.15,2013-07-07 03:55:00,